sensor_id;sensor_type;location;lat;lon;timestamp;P1;durP1;ratioP1;P2;durP2;ratioP2
3781;SDS011;6881;49.962;7.718;2023-04-01T00:00:24;6.73;;;1.80;;
3781;SDS011;6881;49.962;7.718;2023-04-01T00:02:50;2.97;;;1.30;;
3781;SDS011;6881;49.962;7.718;2023-04-01T00:05:15;2.37;;;1.33;;
3781;SDS011;6881;49.962;7.718;2023-04-01T00:07:41;4.10;;;1.43;;
3781;SDS011;6881;49.962;7.718;2023-04-01T00:10:08;3.10;;;1.53;;
3781;SDS011;6881;49.962;7.718;2023-04-01T00:12:35;4.73;;;1.60;;
3781;SDS011;6881;49.962;7.718;2023-04-01T00:15:02;2.60;;;1.43;;
3781;SDS011;6881;49.962;7.718;2023-04-01T00:17:28;2.27;;;1.50;;
3781;SDS011;6881;49.962;7.718;2023-04-01T00:19:56;4.93;;;1.57;;
3781;SDS011;6881;49.962;7.718;2023-04-01T00:22:22;3.90;;;1.10;;
3781;SDS011;6881;49.962;7.718;2023-04-01T00:24:52;3.30;;;0.87;;
3781;SDS011;6881;49.962;7.718;2023-04-01T00:27:18;1.90;;;0.83;;
3781;SDS011;6881;49.962;7.718;2023-04-01T00:29:44;3.40;;;1.00;;
3781;SDS011;6881;49.962;7.718;2023-04-01T00:32:10;4.00;;;0.80;;
3781;SDS011;6881;49.962;7.718;2023-04-01T00:34:35;6.27;;;1.70;;
3781;SDS011;6881;49.962;7.718;2023-04-01T00:37:01;2.50;;;0.90;;
3781;SDS011;6881;49.962;7.718;2023-04-01T00:39:30;4.30;;;1.10;;
3781;SDS011;6881;49.962;7.718;2023-04-01T00:41:56;2.10;;;1.30;;
3781;SDS011;6881;49.962;7.718;2023-04-01T00:44:26;3.00;;;1.00;;
3781;SDS011;6881;49.962;7.718;2023-04-01T00:46:53;2.80;;;1.07;;
3781;SDS011;6881;49.962;7.718;2023-04-01T00:49:19;1.63;;;0.80;;
3781;SDS011;6881;49.962;7.718;2023-04-01T00:51:47;2.20;;;1.07;;
3781;SDS011;6881;49.962;7.718;2023-04-01T00:54:14;0.90;;;0.63;;
3781;SDS011;6881;49.962;7.718;2023-04-01T00:56:43;1.20;;;1.07;;
3781;SDS011;6881;49.962;7.718;2023-04-01T00:59:17;3.70;;;2.23;;
3781;SDS011;6881;49.962;7.718;2023-04-01T01:01:44;3.07;;;1.93;;
3781;SDS011;6881;49.962;7.718;2023-04-01T01:04:23;4.60;;;1.70;;
3781;SDS011;6881;49.962;7.718;2023-04-01T01:12:27;2.30;;;0.90;;
3781;SDS011;6881;49.962;7.718;2023-04-01T01:20:48;3.93;;;1.03;;
3781;SDS011;6881;49.962;7.718;2023-04-01T01:34:40;1.00;;;0.63;;
3781;SDS011;6881;49.962;7.718;2023-04-01T01:37:13;5.07;;;1.27;;
3781;SDS011;6881;49.962;7.718;2023-04-01T01:39:41;2.27;;;0.80;;
3781;SDS011;6881;49.962;7.718;2023-04-01T01:42:09;2.30;;;0.60;;
3781;SDS011;6881;49.962;7.718;2023-04-01T01:44:37;5.27;;;0.70;;
3781;SDS011;6881;49.962;7.718;2023-04-01T01:47:03;0.90;;;0.60;;
3781;SDS011;6881;49.962;7.718;2023-04-01T01:49:28;3.80;;;1.60;;
3781;SDS011;6881;49.962;7.718;2023-04-01T01:51:56;3.10;;;1.50;;
3781;SDS011;6881;49.962;7.718;2023-04-01T01:54:22;1.53;;;0.80;;
3781;SDS011;6881;49.962;7.718;2023-04-01T01:56:48;1.90;;;1.30;;
3781;SDS011;6881;49.962;7.718;2023-04-01T01:59:16;6.60;;;2.10;;
3781;SDS011;6881;49.962;7.718;2023-04-01T02:01:43;2.50;;;1.10;;
3781;SDS011;6881;49.962;7.718;2023-04-01T02:04:12;5.43;;;2.20;;
3781;SDS011;6881;49.962;7.718;2023-04-01T02:06:39;3.97;;;1.93;;
3781;SDS011;6881;49.962;7.718;2023-04-01T02:09:08;8.30;;;3.67;;
3781;SDS011;6881;49.962;7.718;2023-04-01T02:11:41;2.30;;;1.57;;
3781;SDS011;6881;49.962;7.718;2023-04-01T02:14:19;2.17;;;1.60;;
3781;SDS011;6881;49.962;7.718;2023-04-01T02:16:57;4.20;;;1.63;;
3781;SDS011;6881;49.962;7.718;2023-04-01T02:19:26;4.87;;;1.90;;
3781;SDS011;6881;49.962;7.718;2023-04-01T02:21:58;1.70;;;1.10;;
3781;SDS011;6881;49.962;7.718;2023-04-01T02:24:26;2.40;;;1.20;;
3781;SDS011;6881;49.962;7.718;2023-04-01T02:26:52;10.53;;;1.40;;
3781;SDS011;6881;49.962;7.718;2023-04-01T02:29:19;2.97;;;2.03;;
3781;SDS011;6881;49.962;7.718;2023-04-01T02:31:45;7.20;;;2.43;;
3781;SDS011;6881;49.962;7.718;2023-04-01T02:34:11;4.40;;;2.03;;
3781;SDS011;6881;49.962;7.718;2023-04-01T02:36:36;5.30;;;1.80;;
3781;SDS011;6881;49.962;7.718;2023-04-01T02:39:03;1.80;;;1.00;;
3781;SDS011;6881;49.962;7.718;2023-04-01T02:41:29;6.90;;;1.57;;
3781;SDS011;6881;49.962;7.718;2023-04-01T02:43:54;3.73;;;2.10;;
3781;SDS011;6881;49.962;7.718;2023-04-01T02:46:22;1.20;;;0.90;;
3781;SDS011;6881;49.962;7.718;2023-04-01T02:48:47;1.93;;;0.70;;
3781;SDS011;6881;49.962;7.718;2023-04-01T02:51:13;5.23;;;1.40;;
3781;SDS011;6881;49.962;7.718;2023-04-01T02:53:38;1.20;;;1.10;;
3781;SDS011;6881;49.962;7.718;2023-04-01T02:56:03;4.37;;;1.20;;
3781;SDS011;6881;49.962;7.718;2023-04-01T02:58:29;5.40;;;1.47;;
3781;SDS011;6881;49.962;7.718;2023-04-01T03:00:54;3.13;;;1.27;;
3781;SDS011;6881;49.962;7.718;2023-04-01T03:03:20;1.57;;;1.00;;
3781;SDS011;6881;49.962;7.718;2023-04-01T03:05:45;2.33;;;1.07;;
3781;SDS011;6881;49.962;7.718;2023-04-01T03:08:11;2.30;;;1.03;;
3781;SDS011;6881;49.962;7.718;2023-04-01T03:10:36;2.43;;;0.63;;
3781;SDS011;6881;49.962;7.718;2023-04-01T03:13:02;1.73;;;1.20;;
3781;SDS011;6881;49.962;7.718;2023-04-01T03:15:27;4.20;;;1.10;;
3781;SDS011;6881;49.962;7.718;2023-04-01T03:17:52;2.60;;;1.20;;
3781;SDS011;6881;49.962;7.718;2023-04-01T03:20:18;4.80;;;1.33;;
3781;SDS011;6881;49.962;7.718;2023-04-01T03:22:44;3.00;;;1.63;;
3781;SDS011;6881;49.962;7.718;2023-04-01T03:25:10;2.40;;;1.60;;
3781;SDS011;6881;49.962;7.718;2023-04-01T03:27:36;4.63;;;1.60;;
3781;SDS011;6881;49.962;7.718;2023-04-01T03:30:04;1.83;;;1.33;;
3781;SDS011;6881;49.962;7.718;2023-04-01T03:32:31;1.87;;;0.70;;
3781;SDS011;6881;49.962;7.718;2023-04-01T03:34:57;1.33;;;1.00;;
3781;SDS011;6881;49.962;7.718;2023-04-01T03:37:22;1.20;;;0.97;;
3781;SDS011;6881;49.962;7.718;2023-04-01T03:39:48;5.33;;;1.23;;
3781;SDS011;6881;49.962;7.718;2023-04-01T03:42:13;1.43;;;0.73;;
3781;SDS011;6881;49.962;7.718;2023-04-01T03:44:39;1.63;;;1.13;;
3781;SDS011;6881;49.962;7.718;2023-04-01T03:47:05;7.80;;;1.20;;
3781;SDS011;6881;49.962;7.718;2023-04-01T03:49:30;0.60;;;0.50;;
3781;SDS011;6881;49.962;7.718;2023-04-01T03:51:57;2.40;;;1.60;;
3781;SDS011;6881;49.962;7.718;2023-04-01T03:54:22;1.53;;;0.97;;
3781;SDS011;6881;49.962;7.718;2023-04-01T03:56:48;4.43;;;0.90;;
3781;SDS011;6881;49.962;7.718;2023-04-01T03:59:13;1.07;;;0.83;;
3781;SDS011;6881;49.962;7.718;2023-04-01T04:01:39;0.97;;;0.63;;
3781;SDS011;6881;49.962;7.718;2023-04-01T04:04:04;5.80;;;0.80;;
3781;SDS011;6881;49.962;7.718;2023-04-01T04:06:30;3.10;;;0.70;;
3781;SDS011;6881;49.962;7.718;2023-04-01T04:08:56;3.90;;;1.00;;
3781;SDS011;6881;49.962;7.718;2023-04-01T04:11:22;2.57;;;0.73;;
3781;SDS011;6881;49.962;7.718;2023-04-01T04:13:47;0.80;;;0.70;;
3781;SDS011;6881;49.962;7.718;2023-04-01T04:16:13;4.03;;;1.20;;
3781;SDS011;6881;49.962;7.718;2023-04-01T04:18:40;4.13;;;0.60;;
3781;SDS011;6881;49.962;7.718;2023-04-01T04:21:05;0.67;;;0.53;;
3781;SDS011;6881;49.962;7.718;2023-04-01T04:23:31;1.07;;;0.63;;
3781;SDS011;6881;49.962;7.718;2023-04-01T04:26:00;1.93;;;0.60;;
3781;SDS011;6881;49.962;7.718;2023-04-01T04:28:27;4.20;;;0.50;;
3781;SDS011;6881;49.962;7.718;2023-04-01T04:30:53;1.43;;;0.53;;
3781;SDS011;6881;49.962;7.718;2023-04-01T04:33:19;1.50;;;0.73;;
3781;SDS011;6881;49.962;7.718;2023-04-01T04:35:44;3.27;;;0.97;;
3781;SDS011;6881;49.962;7.718;2023-04-01T04:38:10;1.77;;;0.50;;
3781;SDS011;6881;49.962;7.718;2023-04-01T04:40:36;1.10;;;0.57;;
3781;SDS011;6881;49.962;7.718;2023-04-01T04:43:02;6.83;;;1.13;;
3781;SDS011;6881;49.962;7.718;2023-04-01T04:45:28;1.83;;;1.03;;
3781;SDS011;6881;49.962;7.718;2023-04-01T04:47:53;1.10;;;0.97;;
3781;SDS011;6881;49.962;7.718;2023-04-01T04:50:19;2.50;;;1.10;;
3781;SDS011;6881;49.962;7.718;2023-04-01T04:52:44;2.30;;;1.00;;
3781;SDS011;6881;49.962;7.718;2023-04-01T04:55:10;0.80;;;0.70;;
3781;SDS011;6881;49.962;7.718;2023-04-01T04:57:35;1.30;;;0.70;;
3781;SDS011;6881;49.962;7.718;2023-04-01T05:00:00;1.40;;;0.87;;
3781;SDS011;6881;49.962;7.718;2023-04-01T05:02:26;0.90;;;0.40;;
3781;SDS011;6881;49.962;7.718;2023-04-01T05:04:51;0.63;;;0.60;;
3781;SDS011;6881;49.962;7.718;2023-04-01T05:07:16;3.70;;;0.83;;
3781;SDS011;6881;49.962;7.718;2023-04-01T05:09:42;0.83;;;0.67;;
3781;SDS011;6881;49.962;7.718;2023-04-01T05:12:07;2.20;;;0.70;;
3781;SDS011;6881;49.962;7.718;2023-04-01T05:14:32;1.63;;;0.73;;
3781;SDS011;6881;49.962;7.718;2023-04-01T05:16:58;0.80;;;0.77;;
3781;SDS011;6881;49.962;7.718;2023-04-01T05:19:23;7.03;;;0.83;;
3781;SDS011;6881;49.962;7.718;2023-04-01T05:21:48;3.63;;;2.50;;
3781;SDS011;6881;49.962;7.718;2023-04-01T05:24:14;3.47;;;2.20;;
3781;SDS011;6881;49.962;7.718;2023-04-01T05:26:39;8.13;;;4.20;;
3781;SDS011;6881;49.962;7.718;2023-04-01T05:29:04;8.90;;;4.10;;
3781;SDS011;6881;49.962;7.718;2023-04-01T05:31:30;7.57;;;3.20;;
3781;SDS011;6881;49.962;7.718;2023-04-01T05:33:55;5.40;;;2.80;;
3781;SDS011;6881;49.962;7.718;2023-04-01T05:36:21;2.37;;;1.70;;
3781;SDS011;6881;49.962;7.718;2023-04-01T05:38:46;4.77;;;3.20;;
3781;SDS011;6881;49.962;7.718;2023-04-01T05:41:12;3.03;;;2.37;;
3781;SDS011;6881;49.962;7.718;2023-04-01T05:43:38;5.50;;;3.13;;
3781;SDS011;6881;49.962;7.718;2023-04-01T05:46:04;3.00;;;1.97;;
3781;SDS011;6881;49.962;7.718;2023-04-01T05:48:30;2.80;;;1.17;;
3781;SDS011;6881;49.962;7.718;2023-04-01T05:50:55;0.67;;;0.57;;
3781;SDS011;6881;49.962;7.718;2023-04-01T05:53:20;1.67;;;0.80;;
3781;SDS011;6881;49.962;7.718;2023-04-01T05:55:47;1.13;;;0.50;;
3781;SDS011;6881;49.962;7.718;2023-04-01T05:58:12;1.63;;;0.50;;
3781;SDS011;6881;49.962;7.718;2023-04-01T06:00:38;1.13;;;0.60;;
3781;SDS011;6881;49.962;7.718;2023-04-01T06:03:03;1.90;;;0.50;;
3781;SDS011;6881;49.962;7.718;2023-04-01T06:05:29;0.77;;;0.50;;
3781;SDS011;6881;49.962;7.718;2023-04-01T06:08:00;1.13;;;0.40;;
3781;SDS011;6881;49.962;7.718;2023-04-01T06:13:13;1.60;;;0.67;;
3781;SDS011;6881;49.962;7.718;2023-04-01T06:18:37;0.90;;;0.37;;
3781;SDS011;6881;49.962;7.718;2023-04-01T06:21:36;1.27;;;0.60;;
3781;SDS011;6881;49.962;7.718;2023-04-01T06:27:07;1.10;;;0.60;;
3781;SDS011;6881;49.962;7.718;2023-04-01T06:40:48;1.23;;;0.63;;
3781;SDS011;6881;49.962;7.718;2023-04-01T06:46:23;3.13;;;2.03;;
3781;SDS011;6881;49.962;7.718;2023-04-01T06:51:59;1.30;;;1.20;;
3781;SDS011;6881;49.962;7.718;2023-04-01T06:54:38;3.93;;;1.00;;
3781;SDS011;6881;49.962;7.718;2023-04-01T06:59:47;1.20;;;1.10;;
3781;SDS011;6881;49.962;7.718;2023-04-01T07:02:16;0.90;;;0.90;;
3781;SDS011;6881;49.962;7.718;2023-04-01T07:05:01;0.90;;;0.47;;
3781;SDS011;6881;49.962;7.718;2023-04-01T07:07:30;0.97;;;0.77;;
3781;SDS011;6881;49.962;7.718;2023-04-01T07:10:17;1.40;;;1.20;;
3781;SDS011;6881;49.962;7.718;2023-04-01T07:12:48;1.63;;;1.47;;
3781;SDS011;6881;49.962;7.718;2023-04-01T07:15:28;1.60;;;1.50;;
3781;SDS011;6881;49.962;7.718;2023-04-01T07:17:57;6.97;;;3.77;;
3781;SDS011;6881;49.962;7.718;2023-04-01T07:20:30;4.77;;;2.33;;
3781;SDS011;6881;49.962;7.718;2023-04-01T07:22:58;15.37;;;8.30;;
3781;SDS011;6881;49.962;7.718;2023-04-01T07:27:56;2.90;;;2.30;;
3781;SDS011;6881;49.962;7.718;2023-04-01T07:30:26;3.23;;;1.70;;
3781;SDS011;6881;49.962;7.718;2023-04-01T07:35:30;2.00;;;1.53;;
3781;SDS011;6881;49.962;7.718;2023-04-01T07:40:49;1.93;;;1.83;;
3781;SDS011;6881;49.962;7.718;2023-04-01T07:45:50;0.70;;;0.50;;
3781;SDS011;6881;49.962;7.718;2023-04-01T07:48:27;0.90;;;0.63;;
3781;SDS011;6881;49.962;7.718;2023-04-01T07:51:10;0.77;;;0.50;;
3781;SDS011;6881;49.962;7.718;2023-04-01T07:56:13;0.50;;;0.30;;
3781;SDS011;6881;49.962;7.718;2023-04-01T08:15:10;1.07;;;0.70;;
3781;SDS011;6881;49.962;7.718;2023-04-01T08:20:28;0.80;;;0.70;;
3781;SDS011;6881;49.962;7.718;2023-04-01T08:25:35;0.70;;;0.50;;
3781;SDS011;6881;49.962;7.718;2023-04-01T08:33:48;0.70;;;0.50;;
3781;SDS011;6881;49.962;7.718;2023-04-01T08:36:24;0.90;;;0.60;;
3781;SDS011;6881;49.962;7.718;2023-04-01T08:39:07;1.47;;;0.73;;
3781;SDS011;6881;49.962;7.718;2023-04-01T08:52:36;2.93;;;1.80;;
3781;SDS011;6881;49.962;7.718;2023-04-01T09:08:31;9.03;;;3.17;;
3781;SDS011;6881;49.962;7.718;2023-04-01T09:13:37;1.80;;;0.80;;
3781;SDS011;6881;49.962;7.718;2023-04-01T09:21:43;1.37;;;1.00;;
3781;SDS011;6881;49.962;7.718;2023-04-01T09:24:25;3.10;;;1.60;;
3781;SDS011;6881;49.962;7.718;2023-04-01T09:27:37;1.70;;;1.10;;
3781;SDS011;6881;49.962;7.718;2023-04-01T09:35:45;1.40;;;1.30;;
3781;SDS011;6881;49.962;7.718;2023-04-01T09:40:55;1.70;;;0.93;;
3781;SDS011;6881;49.962;7.718;2023-04-01T10:02:44;6.40;;;4.50;;
3781;SDS011;6881;49.962;7.718;2023-04-01T10:16:28;7.23;;;4.13;;
3781;SDS011;6881;49.962;7.718;2023-04-01T10:22:16;2.97;;;2.00;;
3781;SDS011;6881;49.962;7.718;2023-04-01T10:31:06;4.10;;;3.00;;
3781;SDS011;6881;49.962;7.718;2023-04-01T10:47:39;3.80;;;2.00;;
3781;SDS011;6881;49.962;7.718;2023-04-01T11:07:46;1.43;;;0.90;;
3781;SDS011;6881;49.962;7.718;2023-04-01T11:27:13;1.93;;;1.03;;
3781;SDS011;6881;49.962;7.718;2023-04-01T11:35:27;1.83;;;1.40;;
3781;SDS011;6881;49.962;7.718;2023-04-01T11:48:40;2.43;;;1.10;;
3781;SDS011;6881;49.962;7.718;2023-04-01T12:02:09;3.03;;;1.67;;
3781;SDS011;6881;49.962;7.718;2023-04-01T12:04:58;1.67;;;1.47;;
3781;SDS011;6881;49.962;7.718;2023-04-01T12:13:02;1.03;;;0.67;;
3781;SDS011;6881;49.962;7.718;2023-04-01T12:28:06;2.50;;;1.93;;
3781;SDS011;6881;49.962;7.718;2023-04-01T12:33:10;0.63;;;0.40;;
3781;SDS011;6881;49.962;7.718;2023-04-01T12:38:59;1.20;;;0.80;;
3781;SDS011;6881;49.962;7.718;2023-04-01T12:41:32;1.40;;;1.10;;
3781;SDS011;6881;49.962;7.718;2023-04-01T12:49:25;2.10;;;1.67;;
3781;SDS011;6881;49.962;7.718;2023-04-01T13:17:22;1.00;;;0.73;;
3781;SDS011;6881;49.962;7.718;2023-04-01T13:23:17;0.70;;;0.70;;
3781;SDS011;6881;49.962;7.718;2023-04-01T13:25:46;0.90;;;0.60;;
3781;SDS011;6881;49.962;7.718;2023-04-01T13:28:15;1.20;;;1.00;;
3781;SDS011;6881;49.962;7.718;2023-04-01T13:34:03;1.00;;;0.77;;
3781;SDS011;6881;49.962;7.718;2023-04-01T13:36:36;0.73;;;0.70;;
3781;SDS011;6881;49.962;7.718;2023-04-01T13:44:56;0.97;;;0.70;;
3781;SDS011;6881;49.962;7.718;2023-04-01T13:53:23;6.97;;;2.60;;
3781;SDS011;6881;49.962;7.718;2023-04-01T13:55:54;1.37;;;0.90;;
3781;SDS011;6881;49.962;7.718;2023-04-01T14:14:17;1.87;;;1.60;;
3781;SDS011;6881;49.962;7.718;2023-04-01T14:26:02;2.87;;;1.63;;
3781;SDS011;6881;49.962;7.718;2023-04-01T14:37:31;1.80;;;0.93;;
3781;SDS011;6881;49.962;7.718;2023-04-01T14:40:27;1.10;;;0.87;;
3781;SDS011;6881;49.962;7.718;2023-04-01T14:43:20;0.60;;;0.60;;
3781;SDS011;6881;49.962;7.718;2023-04-01T14:48:25;0.60;;;0.40;;
3781;SDS011;6881;49.962;7.718;2023-04-01T14:59:09;2.60;;;1.67;;
3781;SDS011;6881;49.962;7.718;2023-04-01T15:01:48;0.80;;;0.53;;
3781;SDS011;6881;49.962;7.718;2023-04-01T15:04:29;0.60;;;0.50;;
3781;SDS011;6881;49.962;7.718;2023-04-01T15:07:11;0.80;;;0.70;;
3781;SDS011;6881;49.962;7.718;2023-04-01T15:23:08;1.67;;;1.37;;
3781;SDS011;6881;49.962;7.718;2023-04-01T15:28:40;0.63;;;0.53;;
3781;SDS011;6881;49.962;7.718;2023-04-01T15:31:15;0.70;;;0.50;;
3781;SDS011;6881;49.962;7.718;2023-04-01T15:36:38;0.70;;;0.40;;
3781;SDS011;6881;49.962;7.718;2023-04-01T15:41:40;0.77;;;0.50;;
3781;SDS011;6881;49.962;7.718;2023-04-01T15:47:00;4.30;;;1.43;;
3781;SDS011;6881;49.962;7.718;2023-04-01T15:49:41;5.73;;;2.20;;
3781;SDS011;6881;49.962;7.718;2023-04-01T16:06:28;5.37;;;2.70;;
3781;SDS011;6881;49.962;7.718;2023-04-01T16:14:31;6.50;;;2.97;;
3781;SDS011;6881;49.962;7.718;2023-04-01T16:19:49;3.13;;;1.40;;
3781;SDS011;6881;49.962;7.718;2023-04-01T16:22:18;4.83;;;2.13;;
3781;SDS011;6881;49.962;7.718;2023-04-01T16:33:28;4.33;;;2.00;;
3781;SDS011;6881;49.962;7.718;2023-04-01T16:36:00;8.90;;;3.80;;
3781;SDS011;6881;49.962;7.718;2023-04-01T16:38:33;3.97;;;2.17;;
3781;SDS011;6881;49.962;7.718;2023-04-01T16:43:28;3.13;;;2.50;;
3781;SDS011;6881;49.962;7.718;2023-04-01T16:48:56;3.90;;;2.50;;
3781;SDS011;6881;49.962;7.718;2023-04-01T16:51:23;8.53;;;4.03;;
3781;SDS011;6881;49.962;7.718;2023-04-01T16:56:54;9.23;;;4.30;;
3781;SDS011;6881;49.962;7.718;2023-04-01T17:04:34;6.67;;;3.13;;
3781;SDS011;6881;49.962;7.718;2023-04-01T17:07:26;10.83;;;5.43;;
3781;SDS011;6881;49.962;7.718;2023-04-01T17:10:06;10.80;;;5.40;;
3781;SDS011;6881;49.962;7.718;2023-04-01T17:23:50;3.70;;;2.23;;
3781;SDS011;6881;49.962;7.718;2023-04-01T17:29:17;2.00;;;1.53;;
3781;SDS011;6881;49.962;7.718;2023-04-01T17:31:53;3.00;;;2.27;;
3781;SDS011;6881;49.962;7.718;2023-04-01T17:34:29;4.33;;;2.30;;
3781;SDS011;6881;49.962;7.718;2023-04-01T17:37:04;4.23;;;2.40;;
3781;SDS011;6881;49.962;7.718;2023-04-01T17:45:24;1.40;;;1.07;;
3781;SDS011;6881;49.962;7.718;2023-04-01T17:58:29;2.60;;;1.93;;
3781;SDS011;6881;49.962;7.718;2023-04-01T18:03:54;3.00;;;2.27;;
3781;SDS011;6881;49.962;7.718;2023-04-01T18:06:42;2.70;;;1.63;;
3781;SDS011;6881;49.962;7.718;2023-04-01T18:17:31;4.43;;;3.33;;
3781;SDS011;6881;49.962;7.718;2023-04-01T18:20:20;3.37;;;2.13;;
3781;SDS011;6881;49.962;7.718;2023-04-01T18:26:03;2.57;;;2.00;;
3781;SDS011;6881;49.962;7.718;2023-04-01T18:31:19;1.57;;;1.40;;
3781;SDS011;6881;49.962;7.718;2023-04-01T18:33:48;1.50;;;1.07;;
3781;SDS011;6881;49.962;7.718;2023-04-01T18:39:42;1.60;;;1.50;;
3781;SDS011;6881;49.962;7.718;2023-04-01T18:42:17;2.07;;;1.60;;
3781;SDS011;6881;49.962;7.718;2023-04-01T18:44:48;3.70;;;1.80;;
3781;SDS011;6881;49.962;7.718;2023-04-01T18:47:25;3.43;;;2.57;;
3781;SDS011;6881;49.962;7.718;2023-04-01T18:49:58;3.53;;;2.37;;
3781;SDS011;6881;49.962;7.718;2023-04-01T18:52:38;5.80;;;2.70;;
3781;SDS011;6881;49.962;7.718;2023-04-01T18:58:06;5.37;;;4.10;;
3781;SDS011;6881;49.962;7.718;2023-04-01T19:00:36;8.43;;;5.43;;
3781;SDS011;6881;49.962;7.718;2023-04-01T19:03:16;3.37;;;2.93;;
3781;SDS011;6881;49.962;7.718;2023-04-01T19:05:47;4.63;;;2.30;;
3781;SDS011;6881;49.962;7.718;2023-04-01T19:13:51;2.60;;;2.40;;
3781;SDS011;6881;49.962;7.718;2023-04-01T19:22:30;2.67;;;2.47;;
3781;SDS011;6881;49.962;7.718;2023-04-01T19:24:42;3.63;;;2.57;;
3781;SDS011;6881;49.962;7.718;2023-04-01T19:27:29;2.60;;;2.10;;
3781;SDS011;6881;49.962;7.718;2023-04-01T19:43:12;2.20;;;2.10;;
3781;SDS011;6881;49.962;7.718;2023-04-01T19:56:47;4.20;;;3.07;;
3781;SDS011;6881;49.962;7.718;2023-04-01T20:04:45;16.57;;;7.43;;
3781;SDS011;6881;49.962;7.718;2023-04-01T20:10:08;11.53;;;6.00;;
3781;SDS011;6881;49.962;7.718;2023-04-01T20:12:43;10.00;;;5.20;;
3781;SDS011;6881;49.962;7.718;2023-04-01T20:15:31;9.40;;;4.13;;
3781;SDS011;6881;49.962;7.718;2023-04-01T20:18:04;7.70;;;3.10;;
3781;SDS011;6881;49.962;7.718;2023-04-01T20:20:35;10.13;;;4.47;;
3781;SDS011;6881;49.962;7.718;2023-04-01T20:25:55;7.83;;;3.53;;
3781;SDS011;6881;49.962;7.718;2023-04-01T20:28:28;8.10;;;4.03;;
3781;SDS011;6881;49.962;7.718;2023-04-01T20:33:47;6.90;;;4.03;;
3781;SDS011;6881;49.962;7.718;2023-04-01T20:36:38;10.17;;;5.13;;
3781;SDS011;6881;49.962;7.718;2023-04-01T20:44:47;5.73;;;4.53;;
3781;SDS011;6881;49.962;7.718;2023-04-01T20:50:21;7.70;;;4.07;;
3781;SDS011;6881;49.962;7.718;2023-04-01T21:12:43;4.40;;;2.77;;
3781;SDS011;6881;49.962;7.718;2023-04-01T21:28:38;3.73;;;2.23;;
3781;SDS011;6881;49.962;7.718;2023-04-01T21:52:50;4.60;;;4.07;;
3781;SDS011;6881;49.962;7.718;2023-04-01T21:58:30;5.80;;;4.50;;
3781;SDS011;6881;49.962;7.718;2023-04-01T22:03:51;3.70;;;3.40;;
3781;SDS011;6881;49.962;7.718;2023-04-01T22:09:21;3.03;;;2.73;;
3781;SDS011;6881;49.962;7.718;2023-04-01T22:22:48;6.00;;;5.27;;
3781;SDS011;6881;49.962;7.718;2023-04-01T22:28:12;4.70;;;4.23;;
3781;SDS011;6881;49.962;7.718;2023-04-01T22:30:47;3.80;;;3.37;;
3781;SDS011;6881;49.962;7.718;2023-04-01T22:33:20;5.00;;;4.40;;
3781;SDS011;6881;49.962;7.718;2023-04-01T22:36:01;4.53;;;4.10;;
3781;SDS011;6881;49.962;7.718;2023-04-01T22:41:40;4.83;;;3.73;;
3781;SDS011;6881;49.962;7.718;2023-04-01T22:44:27;5.10;;;4.17;;
3781;SDS011;6881;49.962;7.718;2023-04-01T22:52:59;4.07;;;2.97;;
3781;SDS011;6881;49.962;7.718;2023-04-01T22:55:32;2.70;;;2.30;;
3781;SDS011;6881;49.962;7.718;2023-04-01T22:58:03;3.50;;;2.77;;
3781;SDS011;6881;49.962;7.718;2023-04-01T23:00:35;2.33;;;2.03;;
3781;SDS011;6881;49.962;7.718;2023-04-01T23:03:08;3.07;;;2.50;;
3781;SDS011;6881;49.962;7.718;2023-04-01T23:05:57;2.00;;;1.80;;
3781;SDS011;6881;49.962;7.718;2023-04-01T23:10:52;2.43;;;2.23;;
3781;SDS011;6881;49.962;7.718;2023-04-01T23:13:22;3.30;;;2.20;;
3781;SDS011;6881;49.962;7.718;2023-04-01T23:15:52;1.90;;;1.70;;
3781;SDS011;6881;49.962;7.718;2023-04-01T23:18:30;2.53;;;2.07;;
3781;SDS011;6881;49.962;7.718;2023-04-01T23:26:52;3.63;;;2.63;;
3781;SDS011;6881;49.962;7.718;2023-04-01T23:29:38;3.93;;;2.77;;
3781;SDS011;6881;49.962;7.718;2023-04-01T23:32:18;4.10;;;3.70;;
3781;SDS011;6881;49.962;7.718;2023-04-01T23:34:47;5.00;;;3.93;;
3781;SDS011;6881;49.962;7.718;2023-04-01T23:37:14;8.93;;;3.50;;
3781;SDS011;6881;49.962;7.718;2023-04-01T23:39:43;3.63;;;3.07;;
3781;SDS011;6881;49.962;7.718;2023-04-01T23:44:49;3.60;;;2.93;;
3781;SDS011;6881;49.962;7.718;2023-04-01T23:47:26;2.60;;;2.23;;
3781;SDS011;6881;49.962;7.718;2023-04-01T23:49:56;4.40;;;2.90;;
3781;SDS011;6881;49.962;7.718;2023-04-01T23:52:25;3.00;;;2.70;;
3781;SDS011;6881;49.962;7.718;2023-04-01T23:54:56;3.30;;;2.90;;
3781;SDS011;6881;49.962;7.718;2023-04-01T23:57:34;4.10;;;3.20;;
